Bartley, West Virginia
Current Conditions -  °F | °C
As of 11:35 PM on Saturday 25 Oct 2014 (Local Time) from KJFZ Reporting Station
Broken Clouds Broken Clouds  
Wind Chill: 58°   Ceiling: 1600
Heat Index: 58°   Visibility: 10mi
Dew Point: 26°   Wind: 8mph
Humidity: 30%   Direction: 250°WSW
Pressure: 30"   Gusts: NA
Location:  37.34°N, 81.74°W
Report Text: KJFZ 260335Z AUTO 25007KT 10SM BKN016 15/M03 A3000 RMK AO2 T01451031
Loading
Personal Weather Stations






























Interactive Weather Map
Tropical Storm Tracking
New forecast layout! Learn more

10-Day Weather Forecast

Advertisements
Track Severe Weather on mobile